sensor_id;sensor_type;location;lat;lon;timestamp;P1;durP1;ratioP1;P2;durP2;ratioP2
57323;SDS011;43160;51.008;18.248;2024-03-02T00:05:14;81.70;;;34.30;;
57323;SDS011;43160;51.008;18.248;2024-03-02T00:15:05;94.60;;;29.40;;
57323;SDS011;43160;51.008;18.248;2024-03-02T00:25:03;101.50;;;34.20;;
57323;SDS011;43160;51.008;18.248;2024-03-02T00:34:48;109.40;;;32.40;;
57323;SDS011;43160;51.008;18.248;2024-03-02T00:44:32;100.10;;;32.50;;
57323;SDS011;43160;51.008;18.248;2024-03-02T00:54:26;98.40;;;31.70;;
57323;SDS011;43160;51.008;18.248;2024-03-02T01:04:13;90.70;;;29.60;;
57323;SDS011;43160;51.008;18.248;2024-03-02T01:13:56;112.80;;;34.20;;
57323;SDS011;43160;51.008;18.248;2024-03-02T01:23:40;101.40;;;29.00;;
57323;SDS011;43160;51.008;18.248;2024-03-02T01:33:24;80.50;;;33.60;;
57323;SDS011;43160;51.008;18.248;2024-03-02T01:43:07;91.00;;;29.00;;
57323;SDS011;43160;51.008;18.248;2024-03-02T01:52:52;89.80;;;33.40;;
57323;SDS011;43160;51.008;18.248;2024-03-02T02:02:36;79.90;;;30.50;;
57323;SDS011;43160;51.008;18.248;2024-03-02T02:12:21;81.00;;;29.30;;
57323;SDS011;43160;51.008;18.248;2024-03-02T02:22:06;88.00;;;29.30;;
57323;SDS011;43160;51.008;18.248;2024-03-02T02:31:49;89.40;;;31.80;;
57323;SDS011;43160;51.008;18.248;2024-03-02T02:41:37;63.50;;;26.20;;
57323;SDS011;43160;51.008;18.248;2024-03-02T02:51:21;85.20;;;35.40;;
57323;SDS011;43160;51.008;18.248;2024-03-02T03:01:06;87.40;;;31.90;;
57323;SDS011;43160;51.008;18.248;2024-03-02T03:10:50;73.90;;;29.70;;
57323;SDS011;43160;51.008;18.248;2024-03-02T03:20:38;103.10;;;32.80;;
57323;SDS011;43160;51.008;18.248;2024-03-02T03:30:22;85.90;;;33.50;;
57323;SDS011;43160;51.008;18.248;2024-03-02T03:40:07;78.20;;;30.00;;
57323;SDS011;43160;51.008;18.248;2024-03-02T03:49:54;81.30;;;28.60;;
57323;SDS011;43160;51.008;18.248;2024-03-02T03:59:38;86.80;;;30.40;;
57323;SDS011;43160;51.008;18.248;2024-03-02T04:09:21;65.00;;;26.00;;
57323;SDS011;43160;51.008;18.248;2024-03-02T04:19:04;79.20;;;29.40;;
57323;SDS011;43160;51.008;18.248;2024-03-02T04:28:51;81.40;;;31.10;;
57323;SDS011;43160;51.008;18.248;2024-03-02T04:38:37;77.20;;;27.00;;
57323;SDS011;43160;51.008;18.248;2024-03-02T04:48:23;49.20;;;19.80;;
57323;SDS011;43160;51.008;18.248;2024-03-02T04:58:07;67.90;;;26.20;;
57323;SDS011;43160;51.008;18.248;2024-03-02T05:07:52;77.20;;;27.10;;
57323;SDS011;43160;51.008;18.248;2024-03-02T05:17:36;77.30;;;29.90;;
57323;SDS011;43160;51.008;18.248;2024-03-02T05:27:22;64.40;;;24.70;;
57323;SDS011;43160;51.008;18.248;2024-03-02T05:37:05;52.50;;;23.50;;
57323;SDS011;43160;51.008;18.248;2024-03-02T05:46:49;53.00;;;20.70;;
57323;SDS011;43160;51.008;18.248;2024-03-02T05:56:33;55.40;;;21.10;;
57323;SDS011;43160;51.008;18.248;2024-03-02T06:06:39;67.50;;;21.20;;
57323;SDS011;43160;51.008;18.248;2024-03-02T06:16:29;56.20;;;20.50;;
57323;SDS011;43160;51.008;18.248;2024-03-02T06:26:22;41.10;;;17.10;;
57323;SDS011;43160;51.008;18.248;2024-03-02T06:36:07;50.10;;;22.00;;
57323;SDS011;43160;51.008;18.248;2024-03-02T06:45:52;65.50;;;26.20;;
57323;SDS011;43160;51.008;18.248;2024-03-02T06:55:37;52.50;;;23.70;;
57323;SDS011;43160;51.008;18.248;2024-03-02T07:05:22;59.80;;;23.90;;
57323;SDS011;43160;51.008;18.248;2024-03-02T07:15:05;50.30;;;21.90;;
57323;SDS011;43160;51.008;18.248;2024-03-02T07:24:49;45.80;;;21.60;;
57323;SDS011;43160;51.008;18.248;2024-03-02T07:34:34;42.90;;;18.20;;
57323;SDS011;43160;51.008;18.248;2024-03-02T07:44:17;36.00;;;19.30;;
57323;SDS011;43160;51.008;18.248;2024-03-02T07:54:04;41.30;;;19.30;;
57323;SDS011;43160;51.008;18.248;2024-03-02T08:03:53;41.30;;;19.20;;
57323;SDS011;43160;51.008;18.248;2024-03-02T08:13:38;39.00;;;19.90;;
57323;SDS011;43160;51.008;18.248;2024-03-02T08:23:25;42.60;;;19.40;;
57323;SDS011;43160;51.008;18.248;2024-03-02T08:33:09;34.80;;;16.60;;
57323;SDS011;43160;51.008;18.248;2024-03-02T08:42:56;27.00;;;12.60;;
57323;SDS011;43160;51.008;18.248;2024-03-02T08:52:39;39.30;;;16.40;;
57323;SDS011;43160;51.008;18.248;2024-03-02T09:02:24;35.10;;;15.70;;
57323;SDS011;43160;51.008;18.248;2024-03-02T09:12:07;26.00;;;13.80;;
57323;SDS011;43160;51.008;18.248;2024-03-02T09:21:50;30.10;;;13.80;;
57323;SDS011;43160;51.008;18.248;2024-03-02T09:31:38;30.00;;;14.90;;
57323;SDS011;43160;51.008;18.248;2024-03-02T09:41:25;27.90;;;13.80;;
57323;SDS011;43160;51.008;18.248;2024-03-02T09:51:11;33.70;;;16.50;;
57323;SDS011;43160;51.008;18.248;2024-03-02T10:00:56;30.00;;;15.10;;
57323;SDS011;43160;51.008;18.248;2024-03-02T10:10:41;27.50;;;16.00;;
57323;SDS011;43160;51.008;18.248;2024-03-02T10:20:35;29.90;;;15.40;;
57323;SDS011;43160;51.008;18.248;2024-03-02T10:30:31;31.70;;;16.50;;
57323;SDS011;43160;51.008;18.248;2024-03-02T10:40:22;24.70;;;14.40;;
57323;SDS011;43160;51.008;18.248;2024-03-02T10:50:10;23.80;;;10.60;;
57323;SDS011;43160;51.008;18.248;2024-03-02T11:00:15;23.60;;;9.80;;
57323;SDS011;43160;51.008;18.248;2024-03-02T11:10:07;33.10;;;8.40;;
57323;SDS011;43160;51.008;18.248;2024-03-02T11:20:11;18.20;;;9.00;;
57323;SDS011;43160;51.008;18.248;2024-03-02T11:40:30;20.00;;;9.70;;
57323;SDS011;43160;51.008;18.248;2024-03-02T12:00:19;23.10;;;11.50;;
57323;SDS011;43160;51.008;18.248;2024-03-02T12:10:06;18.10;;;9.50;;
57323;SDS011;43160;51.008;18.248;2024-03-02T12:19:52;23.70;;;12.20;;
57323;SDS011;43160;51.008;18.248;2024-03-02T12:29:39;60.20;;;26.50;;
57323;SDS011;43160;51.008;18.248;2024-03-02T12:39:22;49.80;;;27.10;;
57323;SDS011;43160;51.008;18.248;2024-03-02T12:49:12;50.30;;;27.50;;
57323;SDS011;43160;51.008;18.248;2024-03-02T12:59:04;55.20;;;29.20;;
57323;SDS011;43160;51.008;18.248;2024-03-02T13:08:49;50.10;;;26.80;;
57323;SDS011;43160;51.008;18.248;2024-03-02T13:18:34;51.10;;;28.70;;
57323;SDS011;43160;51.008;18.248;2024-03-02T13:28:18;69.20;;;38.50;;
57323;SDS011;43160;51.008;18.248;2024-03-02T13:38:01;52.40;;;30.70;;
57323;SDS011;43160;51.008;18.248;2024-03-02T13:45:20;90.40;;;67.40;;
57323;SDS011;43160;51.008;18.248;2024-03-02T13:55:03;74.00;;;36.70;;
57323;SDS011;43160;51.008;18.248;2024-03-02T14:04:48;55.40;;;31.90;;
57323;SDS011;43160;51.008;18.248;2024-03-02T14:14:32;75.60;;;35.10;;
57323;SDS011;43160;51.008;18.248;2024-03-02T14:16:59;73.40;;;40.00;;
57323;SDS011;43160;51.008;18.248;2024-03-02T14:26:51;117.90;;;54.80;;
57323;SDS011;43160;51.008;18.248;2024-03-02T14:36:41;55.40;;;29.60;;
57323;SDS011;43160;51.008;18.248;2024-03-02T14:46:28;65.70;;;31.20;;
57323;SDS011;43160;51.008;18.248;2024-03-02T14:56:12;52.40;;;26.70;;
57323;SDS011;43160;51.008;18.248;2024-03-02T15:06:01;58.10;;;30.70;;
57323;SDS011;43160;51.008;18.248;2024-03-02T15:15:47;70.00;;;33.80;;
57323;SDS011;43160;51.008;18.248;2024-03-02T15:25:31;76.80;;;32.00;;
57323;SDS011;43160;51.008;18.248;2024-03-02T15:35:16;106.50;;;49.60;;
57323;SDS011;43160;51.008;18.248;2024-03-02T15:45:00;88.60;;;39.90;;
57323;SDS011;43160;51.008;18.248;2024-03-02T15:54:45;76.50;;;35.90;;
57323;SDS011;43160;51.008;18.248;2024-03-02T16:04:29;98.00;;;45.90;;
57323;SDS011;43160;51.008;18.248;2024-03-02T16:14:16;43.90;;;23.10;;
57323;SDS011;43160;51.008;18.248;2024-03-02T16:23:59;58.00;;;25.70;;
57323;SDS011;43160;51.008;18.248;2024-03-02T16:33:43;33.40;;;17.20;;
57323;SDS011;43160;51.008;18.248;2024-03-02T16:43:29;53.80;;;25.40;;
57323;SDS011;43160;51.008;18.248;2024-03-02T16:53:12;87.00;;;30.50;;
57323;SDS011;43160;51.008;18.248;2024-03-02T17:02:59;52.30;;;24.90;;
57323;SDS011;43160;51.008;18.248;2024-03-02T17:12:44;35.00;;;17.90;;
57323;SDS011;43160;51.008;18.248;2024-03-02T17:22:30;38.40;;;18.40;;
57323;SDS011;43160;51.008;18.248;2024-03-02T17:29:49;39.70;;;22.80;;
57323;SDS011;43160;51.008;18.248;2024-03-02T17:39:32;23.50;;;9.50;;
57323;SDS011;43160;51.008;18.248;2024-03-02T17:49:15;25.70;;;13.20;;
57323;SDS011;43160;51.008;18.248;2024-03-02T17:58:58;30.50;;;14.10;;
57323;SDS011;43160;51.008;18.248;2024-03-02T18:08:41;29.50;;;12.70;;
57323;SDS011;43160;51.008;18.248;2024-03-02T18:18:27;25.80;;;11.70;;
57323;SDS011;43160;51.008;18.248;2024-03-02T18:28:13;92.60;;;24.60;;
57323;SDS011;43160;51.008;18.248;2024-03-02T18:37:58;15.10;;;6.00;;
57323;SDS011;43160;51.008;18.248;2024-03-02T18:55:02;45.60;;;24.20;;
57323;SDS011;43160;51.008;18.248;2024-03-02T19:04:47;50.30;;;27.40;;
57323;SDS011;43160;51.008;18.248;2024-03-02T19:14:32;68.90;;;30.20;;
57323;SDS011;43160;51.008;18.248;2024-03-02T19:24:15;79.70;;;31.60;;
57323;SDS011;43160;51.008;18.248;2024-03-02T19:33:59;74.50;;;34.10;;
57323;SDS011;43160;51.008;18.248;2024-03-02T19:43:43;46.80;;;20.40;;
57323;SDS011;43160;51.008;18.248;2024-03-02T19:53:29;45.40;;;22.50;;
57323;SDS011;43160;51.008;18.248;2024-03-02T20:03:13;84.50;;;36.10;;
57323;SDS011;43160;51.008;18.248;2024-03-02T20:12:58;67.60;;;32.10;;
57323;SDS011;43160;51.008;18.248;2024-03-02T20:22:46;74.00;;;32.90;;
57323;SDS011;43160;51.008;18.248;2024-03-02T20:32:33;70.20;;;28.30;;
57323;SDS011;43160;51.008;18.248;2024-03-02T20:39:53;123.50;;;61.10;;
57323;SDS011;43160;51.008;18.248;2024-03-02T20:49:41;65.60;;;34.20;;
57323;SDS011;43160;51.008;18.248;2024-03-02T20:59:25;68.80;;;29.20;;
57323;SDS011;43160;51.008;18.248;2024-03-02T21:09:11;50.80;;;26.20;;
57323;SDS011;43160;51.008;18.248;2024-03-02T21:18:55;57.90;;;26.90;;
57323;SDS011;43160;51.008;18.248;2024-03-02T21:28:39;97.70;;;39.60;;
57323;SDS011;43160;51.008;18.248;2024-03-02T21:38:23;65.90;;;28.90;;
57323;SDS011;43160;51.008;18.248;2024-03-02T21:48:08;68.00;;;27.60;;
57323;SDS011;43160;51.008;18.248;2024-03-02T21:57:54;72.80;;;31.30;;
57323;SDS011;43160;51.008;18.248;2024-03-02T22:07:38;81.10;;;36.20;;
57323;SDS011;43160;51.008;18.248;2024-03-02T22:17:22;88.20;;;36.10;;
57323;SDS011;43160;51.008;18.248;2024-03-02T22:27:07;88.50;;;36.00;;
57323;SDS011;43160;51.008;18.248;2024-03-02T22:36:53;88.60;;;34.80;;
57323;SDS011;43160;51.008;18.248;2024-03-02T22:46:36;112.70;;;37.40;;
57323;SDS011;43160;51.008;18.248;2024-03-02T22:56:19;74.20;;;32.60;;
57323;SDS011;43160;51.008;18.248;2024-03-02T23:06:04;72.00;;;29.70;;
57323;SDS011;43160;51.008;18.248;2024-03-02T23:15:55;77.30;;;29.70;;
57323;SDS011;43160;51.008;18.248;2024-03-02T23:25:40;83.40;;;35.80;;
57323;SDS011;43160;51.008;18.248;2024-03-02T23:35:24;84.40;;;35.70;;
57323;SDS011;43160;51.008;18.248;2024-03-02T23:45:09;85.70;;;36.70;;
57323;SDS011;43160;51.008;18.248;2024-03-02T23:54:54;90.70;;;41.00;;
